»·PEaware :: N2W KABQ-KPSP

N2W :: KABQ-KPSP

FLIGHT INFORMATION

Flight Status: Arrived
Operator: Privately registered:
United States
More flights under this callsign
Pilot: Drew L. (13237)
Aircraft: CESSNA 550 CITATION 2/S2/BRAVO
(C550)
More flights by this aircraft type
Origin: KABQ Albuquerque Intl Sunport
United States
Destination: KPSP Palm Springs Intl
United States
More flights between these airports :: More routes between these airports
Route: +RDRNR3 ZUN DECAS SBONO1
File this flight plan on PilotEdge
Remarks: ROGER
Altitude:
(Current/Filed)
38,000ft
Speed:
(Current/Filed)
0kts
Departed: 24-Oct-18 05:03 PM
Arrived: 24-Oct-18 06:47 PM
Distance/Time
Traveled:
495nm/1:43
Distance/Time
To Go:
Arrived

Flight Plot

Page will automatically refresh every two minutes.

Flight plan parsing failed; only flown route is shown


Map Options




Map Legend


Flown Route
Filed Route
Departure Airport
Arrival Airport
Navaid (VOR, NDB)
Fix

Horizontal Profiles

Position Reports

Time Latitude Longitude Heading Altitude Ground
Speed
24-Oct-18 16:40 35.034954 -106.618728 44 5320ft 0kts
24-Oct-18 16:41 35.034954 -106.618728 44 5320ft 0kts
24-Oct-18 16:42 35.034954 -106.618728 44 5320ft 0kts
24-Oct-18 16:43 35.034954 -106.618728 44 5320ft 0kts
24-Oct-18 16:44 35.034954 -106.618728 44 5320ft 0kts
24-Oct-18 16:45 35.034954 -106.618728 44 5320ft 0kts
24-Oct-18 16:46 35.034954 -106.618728 44 5320ft 0kts
24-Oct-18 16:47 35.034954 -106.618728 44 5320ft 0kts
24-Oct-18 16:48 35.034954 -106.618728 44 5320ft 0kts
24-Oct-18 16:49 35.034954 -106.618728 44 5320ft 0kts
24-Oct-18 16:50 35.034954 -106.618728 44 5320ft 0kts
24-Oct-18 16:51 35.034954 -106.618728 44 5320ft 0kts
24-Oct-18 16:52 35.034954 -106.618728 44 5320ft 0kts
24-Oct-18 16:53 35.034954 -106.618728 44 5320ft 0kts
24-Oct-18 16:54 35.034954 -106.618728 44 5320ft 0kts
24-Oct-18 16:55 35.034954 -106.618728 44 5320ft 0kts
24-Oct-18 16:56 35.034954 -106.618728 44 5320ft 0kts
24-Oct-18 16:57 35.035017 -106.618540 74 5320ft 2kts
24-Oct-18 16:58 35.036333 -106.616596 44 5320ft 6kts
24-Oct-18 16:59 35.037498 -106.614347 29 5320ft 18kts
24-Oct-18 17:00 35.041504 -106.619542 309 5320ft 23kts
24-Oct-18 17:01 35.043025 -106.621430 1 5320ft 0kts
24-Oct-18 17:02 35.043025 -106.621430 1 5320ft 0kts
24-Oct-18 17:03 35.043025 -106.621430 1 5320ft 0kts
24-Oct-18 17:04 35.043025 -106.621430 1 5320ft 0kts
24-Oct-18 17:05 35.044344 -106.619141 88 5320ft 55kts
24-Oct-18 17:06 35.041597 -106.577218 91 6893ft 151kts
24-Oct-18 17:07 35.055213 -106.531639 6 9585ft 155kts
24-Oct-18 17:08 35.076117 -106.575009 278 11570ft 207kts
24-Oct-18 17:09 35.081383 -106.643256 278 14041ft 205kts
24-Oct-18 17:10 35.088515 -106.724790 278 14912ft 257kts
24-Oct-18 17:11 35.098629 -106.810402 282 16633ft 258kts
24-Oct-18 17:12 35.110806 -106.895937 270 18143ft 262kts
24-Oct-18 17:13 35.094827 -106.983719 259 19528ft 267kts
24-Oct-18 17:14 35.077049 -107.072025 258 21011ft 269kts
24-Oct-18 17:15 35.059174 -107.160659 258 22458ft 274kts
24-Oct-18 17:16 35.040844 -107.251230 258 23759ft 277kts
24-Oct-18 17:17 35.035147 -107.344564 268 24901ft 280kts
24-Oct-18 17:18 35.032172 -107.439879 268 25915ft 283kts
24-Oct-18 17:19 35.029088 -107.536158 268 26884ft 286kts
24-Oct-18 17:20 35.025885 -107.633767 267 27875ft 289kts
24-Oct-18 17:21 35.022559 -107.732481 267 28813ft 293kts
24-Oct-18 17:22 35.019123 -107.832118 266 29648ft 298kts
24-Oct-18 17:23 35.015551 -107.933320 266 30870ft 301kts
24-Oct-18 17:24 35.011847 -108.035798 266 31863ft 305kts
24-Oct-18 17:25 35.007928 -108.141481 266 32181ft 322kts
24-Oct-18 17:26 35.003716 -108.252802 266 32179ft 332kts
24-Oct-18 17:27 34.999401 -108.364147 266 32174ft 329kts
24-Oct-18 17:28 34.994990 -108.475159 266 32170ft 327kts
24-Oct-18 17:29 34.990499 -108.585615 266 32167ft 326kts
24-Oct-18 17:30 34.985991 -108.693993 265 32176ft 325kts
24-Oct-18 17:31 34.981306 -108.804258 265 32174ft 326kts
24-Oct-18 17:32 34.976590 -108.913225 265 32173ft 326kts
24-Oct-18 17:33 34.971701 -109.023443 265 32172ft 325kts
24-Oct-18 17:34 34.966720 -109.133625 265 32171ft 325kts
24-Oct-18 17:35 34.952339 -109.242146 259 32169ft 325kts
24-Oct-18 17:36 34.935767 -109.349655 259 32168ft 323kts
24-Oct-18 17:37 34.919078 -109.457020 259 32166ft 322kts
24-Oct-18 17:38 34.902401 -109.563713 259 32164ft 320kts
24-Oct-18 17:39 34.887043 -109.661380 258 32174ft 318kts
24-Oct-18 17:40 34.873413 -109.747668 258 32188ft 318kts
24-Oct-18 17:41 34.856656 -109.853179 258 32207ft 318kts
24-Oct-18 17:42 34.843839 -109.933450 258 32220ft 317kts
24-Oct-18 17:43 34.833720 -109.996579 258 32207ft 318kts
24-Oct-18 17:44 34.816696 -110.102245 258 32188ft 318kts
24-Oct-18 17:45 34.799764 -110.206812 258 32175ft 318kts
24-Oct-18 17:46 34.782980 -110.309822 258 32162ft 317kts
24-Oct-18 17:47 34.765837 -110.414435 258 32143ft 317kts
24-Oct-18 17:48 34.748530 -110.519490 258 32140ft 317kts
24-Oct-18 17:49 34.731158 -110.624347 258 32139ft 316kts
24-Oct-18 17:50 34.716543 -110.712146 258 32151ft 317kts
24-Oct-18 17:51 34.699043 -110.816672 258 32149ft 318kts
24-Oct-18 17:52 34.681501 -110.920892 258 32148ft 318kts
24-Oct-18 17:53 34.663659 -111.026307 258 32146ft 319kts
24-Oct-18 17:54 34.645708 -111.131790 258 32145ft 320kts
24-Oct-18 17:55 34.627696 -111.237067 258 32140ft 321kts
24-Oct-18 17:56 34.609466 -111.342991 258 32137ft 322kts
24-Oct-18 17:57 34.591236 -111.448374 258 32133ft 322kts
24-Oct-18 17:58 34.572794 -111.554381 258 32125ft 322kts
24-Oct-18 17:59 34.554377 -111.659693 258 32127ft 321kts
24-Oct-18 18:00 34.536206 -111.763037 258 32132ft 322kts
24-Oct-18 18:01 34.517757 -111.867429 258 32130ft 323kts
24-Oct-18 18:02 34.498886 -111.973626 258 32133ft 323kts
24-Oct-18 18:03 34.480787 -112.074963 258 32135ft 323kts
24-Oct-18 18:04 34.461882 -112.180221 258 32135ft 323kts
24-Oct-18 18:05 34.442789 -112.285987 258 32133ft 323kts
24-Oct-18 18:06 34.423544 -112.392087 258 32132ft 322kts
24-Oct-18 18:07 34.404713 -112.495330 258 32131ft 322kts
24-Oct-18 18:08 34.385364 -112.600926 258 32129ft 322kts
24-Oct-18 18:09 34.366547 -112.702947 257 32140ft 322kts
24-Oct-18 18:10 34.347282 -112.807024 257 32139ft 323kts
24-Oct-18 18:11 34.327545 -112.913087 259 32137ft 328kts
24-Oct-18 18:12 34.312868 -112.991663 259 32137ft 334kts
24-Oct-18 18:13 34.292388 -113.100807 259 32137ft 343kts
24-Oct-18 18:14 34.271028 -113.213866 258 32135ft 348kts
24-Oct-18 18:15 34.249310 -113.328304 258 32112ft 352kts
24-Oct-18 18:16 34.227411 -113.443040 259 32027ft 354kts
24-Oct-18 18:17 34.205113 -113.559239 258 31959ft 355kts
24-Oct-18 18:18 34.183798 -113.669659 258 31963ft 354kts
24-Oct-18 18:19 34.161408 -113.785169 258 31964ft 354kts
24-Oct-18 18:20 34.139055 -113.899753 258 31964ft 355kts
24-Oct-18 18:21 34.116362 -114.015529 258 31962ft 354kts
24-Oct-18 18:22 34.093609 -114.131010 258 31962ft 354kts
24-Oct-18 18:23 34.070689 -114.246629 258 31962ft 354kts
24-Oct-18 18:24 34.047752 -114.361796 258 31960ft 354kts
24-Oct-18 18:25 34.024700 -114.476935 258 30516ft 349kts
24-Oct-18 18:26 34.002092 -114.589251 259 29002ft 343kts
24-Oct-18 18:27 33.980665 -114.695245 258 27573ft 341kts
24-Oct-18 18:28 33.958310 -114.805185 258 25956ft 340kts
24-Oct-18 18:29 33.935859 -114.915087 258 23766ft 337kts
24-Oct-18 18:30 33.913657 -115.023318 258 22040ft 332kts
24-Oct-18 18:31 33.891603 -115.130300 258 20546ft 330kts
24-Oct-18 18:32 33.869438 -115.237240 258 19034ft 330kts
24-Oct-18 18:33 33.847256 -115.343803 258 17523ft 328kts
24-Oct-18 18:34 33.828155 -115.450077 273 16010ft 323kts
24-Oct-18 18:35 33.854048 -115.551333 292 14500ft 318kts
24-Oct-18 18:36 33.885900 -115.650129 292 12987ft 317kts
24-Oct-18 18:37 33.912080 -115.734627 283 11701ft 316kts
24-Oct-18 18:38 33.910722 -115.819202 266 10938ft 303kts
24-Oct-18 18:39 33.904212 -115.918356 266 10934ft 303kts
24-Oct-18 18:40 33.897238 -116.001467 250 10043ft 304kts
24-Oct-18 18:41 33.852749 -116.094990 241 8834ft 264kts
24-Oct-18 18:42 33.819843 -116.165384 241 7619ft 250kts
24-Oct-18 18:43 33.792189 -116.225412 241 6927ft 237kts
24-Oct-18 18:44 33.761349 -116.304676 269 5417ft 215kts
24-Oct-18 18:45 33.761203 -116.358520 270 4419ft 198kts
24-Oct-18 18:46 33.770095 -116.435726 284 3093ft 168kts
24-Oct-18 18:47 33.787991 -116.470686 324 1568ft 131kts
24-Oct-18 18:48 33.812052 -116.491972 323 770ft 106kts
24-Oct-18 18:49 33.830221 -116.508145 322 482ft 37kts
24-Oct-18 18:50 33.832382 -116.511967 181 482ft 20kts
24-Oct-18 18:51 33.826596 -116.506982 147 482ft 17kts
24-Oct-18 18:52 33.825354 -116.508410 273 482ft 5kts
24-Oct-18 18:53 33.826456 -116.509305 179 482ft 0kts
24-Oct-18 18:54 33.826456 -116.509305 179 482ft 0kts
24-Oct-18 18:55 33.826456 -116.509305 179 482ft 0kts
24-Oct-18 18:56 33.826456 -116.509305 179 482ft 0kts
24-Oct-18 18:57 33.826456 -116.509305 179 482ft 0kts
24-Oct-18 18:58 33.826456 -116.509305 179 482ft 0kts
24-Oct-18 18:59 33.826456 -116.509305 179 482ft 0kts
24-Oct-18 19:00 33.826456 -116.509305 179 482ft 0kts
24-Oct-18 19:01 33.826456 -116.509305 179 482ft 0kts
24-Oct-18 19:02 33.826456 -116.509305 179 482ft 0kts
24-Oct-18 19:03 33.826456 -116.509305 179 482ft 0kts

Navigation Log

Ident Type
Flight plan parsing failed, navigation log unavailable